sensor_id;sensor_type;location;lat;lon;timestamp;P1;durP1;ratioP1;P2;durP2;ratioP2
19347;SDS011;9810;52.480;9.806;2023-04-25T00:01:47;13.23;;;3.53;;
19347;SDS011;9810;52.480;9.806;2023-04-25T00:04:16;13.37;;;3.63;;
19347;SDS011;9810;52.480;9.806;2023-04-25T00:06:43;8.40;;;3.90;;
19347;SDS011;9810;52.480;9.806;2023-04-25T00:09:13;15.23;;;3.90;;
19347;SDS011;9810;52.480;9.806;2023-04-25T00:11:40;9.40;;;3.47;;
19347;SDS011;9810;52.480;9.806;2023-04-25T00:14:07;9.53;;;3.90;;
19347;SDS011;9810;52.480;9.806;2023-04-25T00:16:37;13.37;;;3.87;;
19347;SDS011;9810;52.480;9.806;2023-04-25T00:19:06;10.07;;;3.40;;
19347;SDS011;9810;52.480;9.806;2023-04-25T00:21:34;6.93;;;4.20;;
19347;SDS011;9810;52.480;9.806;2023-04-25T00:24:02;9.13;;;3.83;;
19347;SDS011;9810;52.480;9.806;2023-04-25T00:26:38;10.90;;;4.40;;
19347;SDS011;9810;52.480;9.806;2023-04-25T00:29:07;8.30;;;3.37;;
19347;SDS011;9810;52.480;9.806;2023-04-25T00:31:36;9.37;;;3.90;;
19347;SDS011;9810;52.480;9.806;2023-04-25T00:34:04;9.17;;;4.07;;
19347;SDS011;9810;52.480;9.806;2023-04-25T00:36:33;8.93;;;3.80;;
19347;SDS011;9810;52.480;9.806;2023-04-25T00:39:01;12.70;;;4.27;;
19347;SDS011;9810;52.480;9.806;2023-04-25T00:41:31;10.03;;;3.23;;
19347;SDS011;9810;52.480;9.806;2023-04-25T00:44:01;13.80;;;3.97;;
19347;SDS011;9810;52.480;9.806;2023-04-25T00:46:30;10.00;;;4.07;;
19347;SDS011;9810;52.480;9.806;2023-04-25T00:48:58;8.87;;;4.10;;
19347;SDS011;9810;52.480;9.806;2023-04-25T00:51:25;14.47;;;4.60;;
19347;SDS011;9810;52.480;9.806;2023-04-25T00:53:52;10.37;;;3.53;;
19347;SDS011;9810;52.480;9.806;2023-04-25T00:56:20;9.87;;;3.40;;
19347;SDS011;9810;52.480;9.806;2023-04-25T00:58:48;11.53;;;4.20;;
19347;SDS011;9810;52.480;9.806;2023-04-25T01:01:17;10.53;;;3.87;;
19347;SDS011;9810;52.480;9.806;2023-04-25T01:03:45;12.70;;;4.27;;
19347;SDS011;9810;52.480;9.806;2023-04-25T01:06:15;8.27;;;3.87;;
19347;SDS011;9810;52.480;9.806;2023-04-25T01:08:43;11.30;;;3.87;;
19347;SDS011;9810;52.480;9.806;2023-04-25T01:11:11;12.77;;;4.63;;
19347;SDS011;9810;52.480;9.806;2023-04-25T01:13:39;8.23;;;3.67;;
19347;SDS011;9810;52.480;9.806;2023-04-25T01:16:06;17.17;;;4.57;;
19347;SDS011;9810;52.480;9.806;2023-04-25T01:18:35;10.60;;;4.00;;
19347;SDS011;9810;52.480;9.806;2023-04-25T01:21:08;12.13;;;3.93;;
19347;SDS011;9810;52.480;9.806;2023-04-25T01:23:36;9.10;;;4.57;;
19347;SDS011;9810;52.480;9.806;2023-04-25T01:26:05;8.77;;;5.03;;
19347;SDS011;9810;52.480;9.806;2023-04-25T01:31:54;12.33;;;4.73;;
19347;SDS011;9810;52.480;9.806;2023-04-25T01:34:23;8.37;;;4.13;;
19347;SDS011;9810;52.480;9.806;2023-04-25T01:36:54;14.27;;;4.47;;
19347;SDS011;9810;52.480;9.806;2023-04-25T01:39:21;9.53;;;4.83;;
19347;SDS011;9810;52.480;9.806;2023-04-25T01:41:51;12.90;;;4.60;;
19347;SDS011;9810;52.480;9.806;2023-04-25T01:44:19;7.87;;;4.43;;
19347;SDS011;9810;52.480;9.806;2023-04-25T01:46:49;14.50;;;4.90;;
19347;SDS011;9810;52.480;9.806;2023-04-25T01:49:16;10.70;;;4.47;;
19347;SDS011;9810;52.480;9.806;2023-04-25T01:51:43;11.53;;;4.80;;
19347;SDS011;9810;52.480;9.806;2023-04-25T01:54:12;17.87;;;6.07;;
19347;SDS011;9810;52.480;9.806;2023-04-25T01:56:40;13.43;;;4.70;;
19347;SDS011;9810;52.480;9.806;2023-04-25T01:59:07;13.07;;;5.07;;
19347;SDS011;9810;52.480;9.806;2023-04-25T02:01:35;7.47;;;4.03;;
19347;SDS011;9810;52.480;9.806;2023-04-25T02:04:02;11.73;;;4.27;;
19347;SDS011;9810;52.480;9.806;2023-04-25T02:06:29;13.63;;;4.87;;
19347;SDS011;9810;52.480;9.806;2023-04-25T02:08:57;11.73;;;4.00;;
19347;SDS011;9810;52.480;9.806;2023-04-25T02:14:39;9.97;;;4.80;;
19347;SDS011;9810;52.480;9.806;2023-04-25T02:17:07;11.90;;;5.00;;
19347;SDS011;9810;52.480;9.806;2023-04-25T02:19:37;10.70;;;4.50;;
19347;SDS011;9810;52.480;9.806;2023-04-25T02:22:04;12.60;;;4.83;;
19347;SDS011;9810;52.480;9.806;2023-04-25T02:24:31;12.00;;;4.60;;
19347;SDS011;9810;52.480;9.806;2023-04-25T02:26:59;12.90;;;4.30;;
19347;SDS011;9810;52.480;9.806;2023-04-25T02:29:27;14.13;;;4.13;;
19347;SDS011;9810;52.480;9.806;2023-04-25T02:31:59;18.80;;;5.17;;
19347;SDS011;9810;52.480;9.806;2023-04-25T02:34:27;13.03;;;4.57;;
19347;SDS011;9810;52.480;9.806;2023-04-25T02:36:54;16.13;;;4.27;;
19347;SDS011;9810;52.480;9.806;2023-04-25T02:39:23;13.37;;;3.60;;
19347;SDS011;9810;52.480;9.806;2023-04-25T02:41:52;19.97;;;4.20;;
19347;SDS011;9810;52.480;9.806;2023-04-25T02:44:20;14.93;;;4.37;;
19347;SDS011;9810;52.480;9.806;2023-04-25T02:46:47;13.17;;;3.53;;
19347;SDS011;9810;52.480;9.806;2023-04-25T02:49:16;14.77;;;3.57;;
19347;SDS011;9810;52.480;9.806;2023-04-25T02:51:42;10.90;;;3.80;;
19347;SDS011;9810;52.480;9.806;2023-04-25T02:54:10;10.63;;;3.37;;
19347;SDS011;9810;52.480;9.806;2023-04-25T02:56:37;11.10;;;4.23;;
19347;SDS011;9810;52.480;9.806;2023-04-25T02:59:05;21.80;;;4.33;;
19347;SDS011;9810;52.480;9.806;2023-04-25T03:01:32;23.83;;;4.03;;
19347;SDS011;9810;52.480;9.806;2023-04-25T03:04:00;14.57;;;3.77;;
19347;SDS011;9810;52.480;9.806;2023-04-25T03:06:30;21.53;;;3.70;;
19347;SDS011;9810;52.480;9.806;2023-04-25T03:08:57;17.93;;;3.70;;
19347;SDS011;9810;52.480;9.806;2023-04-25T03:48:15;22.13;;;3.27;;
19347;SDS011;9810;52.480;9.806;2023-04-25T03:50:42;15.87;;;4.23;;
19347;SDS011;9810;52.480;9.806;2023-04-25T03:53:09;17.63;;;3.80;;
19347;SDS011;9810;52.480;9.806;2023-04-25T03:55:40;24.37;;;4.20;;
19347;SDS011;9810;52.480;9.806;2023-04-25T03:58:07;23.20;;;4.40;;
19347;SDS011;9810;52.480;9.806;2023-04-25T04:00:34;16.20;;;3.70;;
19347;SDS011;9810;52.480;9.806;2023-04-25T04:03:02;12.63;;;3.60;;
19347;SDS011;9810;52.480;9.806;2023-04-25T04:05:31;19.37;;;4.23;;
19347;SDS011;9810;52.480;9.806;2023-04-25T04:07:59;11.87;;;3.10;;
19347;SDS011;9810;52.480;9.806;2023-04-25T04:10:26;17.80;;;3.67;;
19347;SDS011;9810;52.480;9.806;2023-04-25T04:12:53;10.70;;;3.53;;
19347;SDS011;9810;52.480;9.806;2023-04-25T04:15:21;15.83;;;4.20;;
19347;SDS011;9810;52.480;9.806;2023-04-25T04:17:49;13.70;;;3.63;;
19347;SDS011;9810;52.480;9.806;2023-04-25T04:20:16;22.20;;;4.90;;
19347;SDS011;9810;52.480;9.806;2023-04-25T04:22:46;16.00;;;4.10;;
19347;SDS011;9810;52.480;9.806;2023-04-25T04:25:14;18.10;;;3.83;;
19347;SDS011;9810;52.480;9.806;2023-04-25T04:27:42;15.10;;;3.77;;
19347;SDS011;9810;52.480;9.806;2023-04-25T04:30:09;20.53;;;4.07;;
19347;SDS011;9810;52.480;9.806;2023-04-25T04:32:37;18.90;;;3.57;;
19347;SDS011;9810;52.480;9.806;2023-04-25T04:35:05;22.87;;;4.40;;
19347;SDS011;9810;52.480;9.806;2023-04-25T04:37:34;13.63;;;4.50;;
19347;SDS011;9810;52.480;9.806;2023-04-25T04:40:04;23.87;;;3.83;;
19347;SDS011;9810;52.480;9.806;2023-04-25T04:42:32;21.33;;;3.43;;
19347;SDS011;9810;52.480;9.806;2023-04-25T04:45:03;19.20;;;3.93;;
19347;SDS011;9810;52.480;9.806;2023-04-25T04:47:31;20.43;;;4.03;;
19347;SDS011;9810;52.480;9.806;2023-04-25T04:49:59;21.97;;;4.20;;
19347;SDS011;9810;52.480;9.806;2023-04-25T04:52:26;19.27;;;4.00;;
19347;SDS011;9810;52.480;9.806;2023-04-25T04:54:53;26.90;;;3.80;;
19347;SDS011;9810;52.480;9.806;2023-04-25T04:57:23;18.33;;;3.87;;
19347;SDS011;9810;52.480;9.806;2023-04-25T04:59:50;22.40;;;4.53;;
19347;SDS011;9810;52.480;9.806;2023-04-25T05:02:18;16.70;;;3.73;;
19347;SDS011;9810;52.480;9.806;2023-04-25T05:04:47;17.03;;;4.23;;
19347;SDS011;9810;52.480;9.806;2023-04-25T05:07:16;11.90;;;3.43;;
19347;SDS011;9810;52.480;9.806;2023-04-25T05:09:44;13.80;;;4.00;;
19347;SDS011;9810;52.480;9.806;2023-04-25T05:12:14;14.03;;;3.80;;
19347;SDS011;9810;52.480;9.806;2023-04-25T05:14:43;26.33;;;4.27;;
19347;SDS011;9810;52.480;9.806;2023-04-25T05:17:10;20.70;;;5.23;;
19347;SDS011;9810;52.480;9.806;2023-04-25T05:19:38;18.97;;;3.80;;
19347;SDS011;9810;52.480;9.806;2023-04-25T05:22:06;29.27;;;5.77;;
19347;SDS011;9810;52.480;9.806;2023-04-25T05:24:33;14.67;;;3.07;;
19347;SDS011;9810;52.480;9.806;2023-04-25T05:27:00;18.43;;;3.70;;
19347;SDS011;9810;52.480;9.806;2023-04-25T05:29:27;23.57;;;5.33;;
19347;SDS011;9810;52.480;9.806;2023-04-25T05:31:56;13.97;;;3.53;;
19347;SDS011;9810;52.480;9.806;2023-04-25T05:34:24;25.93;;;3.23;;
19347;SDS011;9810;52.480;9.806;2023-04-25T05:36:51;20.13;;;3.80;;
19347;SDS011;9810;52.480;9.806;2023-04-25T05:39:18;21.43;;;4.17;;
19347;SDS011;9810;52.480;9.806;2023-04-25T05:41:45;21.60;;;4.20;;
19347;SDS011;9810;52.480;9.806;2023-04-25T05:44:13;15.03;;;4.00;;
19347;SDS011;9810;52.480;9.806;2023-04-25T05:46:41;20.37;;;4.83;;
19347;SDS011;9810;52.480;9.806;2023-04-25T05:49:09;17.50;;;4.03;;
19347;SDS011;9810;52.480;9.806;2023-04-25T05:51:37;18.53;;;4.43;;
19347;SDS011;9810;52.480;9.806;2023-04-25T05:54:04;19.37;;;4.20;;
19347;SDS011;9810;52.480;9.806;2023-04-25T05:56:32;20.63;;;4.20;;
19347;SDS011;9810;52.480;9.806;2023-04-25T05:58:59;19.77;;;4.60;;
19347;SDS011;9810;52.480;9.806;2023-04-25T06:01:27;18.80;;;3.37;;
19347;SDS011;9810;52.480;9.806;2023-04-25T06:03:54;10.67;;;3.10;;
19347;SDS011;9810;52.480;9.806;2023-04-25T06:06:23;16.27;;;3.20;;
19347;SDS011;9810;52.480;9.806;2023-04-25T06:08:51;22.57;;;3.87;;
19347;SDS011;9810;52.480;9.806;2023-04-25T06:11:19;14.17;;;3.53;;
19347;SDS011;9810;52.480;9.806;2023-04-25T06:13:51;20.53;;;4.17;;
19347;SDS011;9810;52.480;9.806;2023-04-25T06:16:21;12.93;;;3.30;;
19347;SDS011;9810;52.480;9.806;2023-04-25T06:18:50;17.73;;;3.33;;
19347;SDS011;9810;52.480;9.806;2023-04-25T06:21:18;10.63;;;3.27;;
19347;SDS011;9810;52.480;9.806;2023-04-25T06:23:47;14.77;;;3.53;;
19347;SDS011;9810;52.480;9.806;2023-04-25T06:26:14;16.53;;;3.13;;
19347;SDS011;9810;52.480;9.806;2023-04-25T06:28:41;16.07;;;4.23;;
19347;SDS011;9810;52.480;9.806;2023-04-25T06:31:09;20.13;;;4.37;;
19347;SDS011;9810;52.480;9.806;2023-04-25T06:33:36;15.07;;;3.00;;
19347;SDS011;9810;52.480;9.806;2023-04-25T06:36:03;15.90;;;4.13;;
19347;SDS011;9810;52.480;9.806;2023-04-25T06:38:31;19.37;;;3.97;;
19347;SDS011;9810;52.480;9.806;2023-04-25T06:41:01;17.33;;;3.97;;
19347;SDS011;9810;52.480;9.806;2023-04-25T06:43:29;16.00;;;3.00;;
19347;SDS011;9810;52.480;9.806;2023-04-25T06:45:58;20.27;;;3.43;;
19347;SDS011;9810;52.480;9.806;2023-04-25T06:48:27;22.67;;;3.93;;
19347;SDS011;9810;52.480;9.806;2023-04-25T06:50:55;20.53;;;3.47;;
19347;SDS011;9810;52.480;9.806;2023-04-25T06:53:22;20.07;;;4.03;;
19347;SDS011;9810;52.480;9.806;2023-04-25T06:55:52;17.33;;;3.23;;
19347;SDS011;9810;52.480;9.806;2023-04-25T06:58:21;12.53;;;2.43;;
19347;SDS011;9810;52.480;9.806;2023-04-25T07:00:48;9.67;;;2.80;;
19347;SDS011;9810;52.480;9.806;2023-04-25T07:03:16;17.87;;;3.07;;
19347;SDS011;9810;52.480;9.806;2023-04-25T07:05:44;14.77;;;3.20;;
19347;SDS011;9810;52.480;9.806;2023-04-25T07:08:12;16.27;;;3.50;;
19347;SDS011;9810;52.480;9.806;2023-04-25T07:10:39;13.40;;;3.30;;
19347;SDS011;9810;52.480;9.806;2023-04-25T07:13:07;16.73;;;3.07;;
19347;SDS011;9810;52.480;9.806;2023-04-25T07:15:39;14.47;;;3.97;;
19347;SDS011;9810;52.480;9.806;2023-04-25T07:18:07;17.60;;;2.90;;
19347;SDS011;9810;52.480;9.806;2023-04-25T07:20:34;11.60;;;3.77;;
19347;SDS011;9810;52.480;9.806;2023-04-25T07:23:01;23.93;;;4.53;;
19347;SDS011;9810;52.480;9.806;2023-04-25T07:25:29;11.77;;;3.17;;
19347;SDS011;9810;52.480;9.806;2023-04-25T07:27:56;11.23;;;3.47;;
19347;SDS011;9810;52.480;9.806;2023-04-25T07:30:24;11.97;;;3.23;;
19347;SDS011;9810;52.480;9.806;2023-04-25T07:32:53;11.97;;;3.63;;
19347;SDS011;9810;52.480;9.806;2023-04-25T07:35:20;15.27;;;2.97;;
19347;SDS011;9810;52.480;9.806;2023-04-25T07:37:47;16.47;;;3.53;;
19347;SDS011;9810;52.480;9.806;2023-04-25T07:40:15;13.47;;;3.67;;
19347;SDS011;9810;52.480;9.806;2023-04-25T07:42:42;11.40;;;3.20;;
19347;SDS011;9810;52.480;9.806;2023-04-25T07:45:10;20.80;;;3.87;;
19347;SDS011;9810;52.480;9.806;2023-04-25T07:47:37;13.37;;;2.90;;
19347;SDS011;9810;52.480;9.806;2023-04-25T07:50:07;12.27;;;3.40;;
19347;SDS011;9810;52.480;9.806;2023-04-25T07:52:37;12.80;;;2.87;;
19347;SDS011;9810;52.480;9.806;2023-04-25T07:55:05;8.10;;;2.03;;
19347;SDS011;9810;52.480;9.806;2023-04-25T07:57:32;9.60;;;2.53;;
19347;SDS011;9810;52.480;9.806;2023-04-25T07:59:59;13.40;;;2.50;;
19347;SDS011;9810;52.480;9.806;2023-04-25T08:02:27;6.93;;;2.00;;
19347;SDS011;9810;52.480;9.806;2023-04-25T08:04:54;10.17;;;2.10;;
19347;SDS011;9810;52.480;9.806;2023-04-25T08:07:23;14.73;;;2.70;;
19347;SDS011;9810;52.480;9.806;2023-04-25T08:09:51;13.93;;;3.17;;
19347;SDS011;9810;52.480;9.806;2023-04-25T08:12:19;13.33;;;2.27;;
19347;SDS011;9810;52.480;9.806;2023-04-25T08:14:46;10.40;;;2.17;;
19347;SDS011;9810;52.480;9.806;2023-04-25T08:17:13;12.80;;;2.33;;
19347;SDS011;9810;52.480;9.806;2023-04-25T08:19:41;4.13;;;1.80;;
19347;SDS011;9810;52.480;9.806;2023-04-25T08:22:08;7.77;;;2.30;;
19347;SDS011;9810;52.480;9.806;2023-04-25T08:24:37;8.70;;;1.90;;
19347;SDS011;9810;52.480;9.806;2023-04-25T08:27:05;10.83;;;2.50;;
19347;SDS011;9810;52.480;9.806;2023-04-25T08:29:33;12.17;;;2.47;;
19347;SDS011;9810;52.480;9.806;2023-04-25T08:32:02;6.37;;;2.00;;
19347;SDS011;9810;52.480;9.806;2023-04-25T08:34:29;6.33;;;1.47;;
19347;SDS011;9810;52.480;9.806;2023-04-25T08:36:57;7.47;;;2.30;;
19347;SDS011;9810;52.480;9.806;2023-04-25T08:39:31;11.90;;;2.00;;
19347;SDS011;9810;52.480;9.806;2023-04-25T08:42:00;12.27;;;2.33;;
19347;SDS011;9810;52.480;9.806;2023-04-25T08:44:29;6.27;;;2.10;;
19347;SDS011;9810;52.480;9.806;2023-04-25T08:46:57;8.43;;;2.20;;
19347;SDS011;9810;52.480;9.806;2023-04-25T08:49:24;8.63;;;1.90;;
19347;SDS011;9810;52.480;9.806;2023-04-25T08:51:52;7.87;;;1.50;;
19347;SDS011;9810;52.480;9.806;2023-04-25T08:54:23;7.77;;;2.03;;
19347;SDS011;9810;52.480;9.806;2023-04-25T08:56:54;13.53;;;2.07;;
19347;SDS011;9810;52.480;9.806;2023-04-25T08:59:24;15.60;;;2.23;;
19347;SDS011;9810;52.480;9.806;2023-04-25T09:01:52;11.20;;;1.80;;
19347;SDS011;9810;52.480;9.806;2023-04-25T09:04:19;6.20;;;1.40;;
19347;SDS011;9810;52.480;9.806;2023-04-25T09:06:47;12.17;;;2.00;;
19347;SDS011;9810;52.480;9.806;2023-04-25T09:09:15;9.80;;;2.07;;
19347;SDS011;9810;52.480;9.806;2023-04-25T09:11:43;5.27;;;1.97;;
19347;SDS011;9810;52.480;9.806;2023-04-25T09:14:13;7.50;;;1.87;;
19347;SDS011;9810;52.480;9.806;2023-04-25T09:16:58;6.50;;;1.70;;
19347;SDS011;9810;52.480;9.806;2023-04-25T09:19:28;7.47;;;1.87;;
19347;SDS011;9810;52.480;9.806;2023-04-25T09:21:56;6.23;;;1.67;;
19347;SDS011;9810;52.480;9.806;2023-04-25T09:24:31;6.10;;;1.57;;
19347;SDS011;9810;52.480;9.806;2023-04-25T09:27:05;5.17;;;1.17;;
19347;SDS011;9810;52.480;9.806;2023-04-25T09:29:36;5.90;;;1.93;;
19347;SDS011;9810;52.480;9.806;2023-04-25T09:32:14;5.20;;;1.20;;
19347;SDS011;9810;52.480;9.806;2023-04-25T09:34:43;9.37;;;1.63;;
19347;SDS011;9810;52.480;9.806;2023-04-25T09:37:17;5.20;;;1.53;;
19347;SDS011;9810;52.480;9.806;2023-04-25T09:39:46;4.97;;;1.40;;
19347;SDS011;9810;52.480;9.806;2023-04-25T09:42:14;4.47;;;0.97;;
19347;SDS011;9810;52.480;9.806;2023-04-25T09:44:42;2.97;;;1.00;;
19347;SDS011;9810;52.480;9.806;2023-04-25T09:47:11;5.17;;;1.00;;
19347;SDS011;9810;52.480;9.806;2023-04-25T09:49:43;7.40;;;1.23;;
19347;SDS011;9810;52.480;9.806;2023-04-25T09:52:13;5.97;;;1.53;;
19347;SDS011;9810;52.480;9.806;2023-04-25T09:54:41;6.43;;;1.00;;
19347;SDS011;9810;52.480;9.806;2023-04-25T09:57:10;7.43;;;1.20;;
19347;SDS011;9810;52.480;9.806;2023-04-25T09:59:39;9.87;;;1.17;;
19347;SDS011;9810;52.480;9.806;2023-04-25T10:02:09;8.83;;;1.30;;
19347;SDS011;9810;52.480;9.806;2023-04-25T10:04:39;16.80;;;1.83;;
19347;SDS011;9810;52.480;9.806;2023-04-25T10:07:08;7.47;;;1.53;;
19347;SDS011;9810;52.480;9.806;2023-04-25T10:09:39;5.37;;;1.03;;
19347;SDS011;9810;52.480;9.806;2023-04-25T10:12:07;5.13;;;1.33;;
19347;SDS011;9810;52.480;9.806;2023-04-25T10:14:35;7.03;;;1.30;;
19347;SDS011;9810;52.480;9.806;2023-04-25T10:17:05;5.43;;;1.30;;
19347;SDS011;9810;52.480;9.806;2023-04-25T10:19:33;3.50;;;1.03;;
19347;SDS011;9810;52.480;9.806;2023-04-25T10:22:07;7.37;;;1.30;;
19347;SDS011;9810;52.480;9.806;2023-04-25T10:24:38;4.97;;;1.20;;
19347;SDS011;9810;52.480;9.806;2023-04-25T10:27:06;6.13;;;1.67;;
19347;SDS011;9810;52.480;9.806;2023-04-25T10:29:34;4.00;;;1.40;;
19347;SDS011;9810;52.480;9.806;2023-04-25T10:32:02;3.80;;;1.10;;
19347;SDS011;9810;52.480;9.806;2023-04-25T10:34:40;9.47;;;1.90;;
19347;SDS011;9810;52.480;9.806;2023-04-25T10:37:10;3.10;;;1.00;;
19347;SDS011;9810;52.480;9.806;2023-04-25T10:39:38;3.03;;;1.43;;
19347;SDS011;9810;52.480;9.806;2023-04-25T10:42:06;8.63;;;1.60;;
19347;SDS011;9810;52.480;9.806;2023-04-25T10:44:34;3.60;;;1.50;;
19347;SDS011;9810;52.480;9.806;2023-04-25T10:47:05;6.53;;;1.77;;
19347;SDS011;9810;52.480;9.806;2023-04-25T10:49:34;7.30;;;1.30;;
19347;SDS011;9810;52.480;9.806;2023-04-25T10:52:14;7.47;;;2.80;;
19347;SDS011;9810;52.480;9.806;2023-04-25T10:54:48;6.07;;;1.60;;
19347;SDS011;9810;52.480;9.806;2023-04-25T10:57:31;5.77;;;1.30;;
19347;SDS011;9810;52.480;9.806;2023-04-25T11:00:06;5.13;;;1.97;;
19347;SDS011;9810;52.480;9.806;2023-04-25T11:02:42;7.77;;;1.23;;
19347;SDS011;9810;52.480;9.806;2023-04-25T11:05:22;7.90;;;1.60;;
19347;SDS011;9810;52.480;9.806;2023-04-25T11:08:06;6.77;;;1.70;;
19347;SDS011;9810;52.480;9.806;2023-04-25T11:10:39;4.40;;;1.60;;
19347;SDS011;9810;52.480;9.806;2023-04-25T11:13:07;6.47;;;1.30;;
19347;SDS011;9810;52.480;9.806;2023-04-25T11:15:50;4.43;;;1.20;;
19347;SDS011;9810;52.480;9.806;2023-04-25T11:18:20;3.63;;;0.93;;
19347;SDS011;9810;52.480;9.806;2023-04-25T11:20:47;3.13;;;0.90;;
19347;SDS011;9810;52.480;9.806;2023-04-25T11:23:17;3.77;;;0.90;;
19347;SDS011;9810;52.480;9.806;2023-04-25T11:25:47;5.20;;;1.17;;
19347;SDS011;9810;52.480;9.806;2023-04-25T11:28:22;4.30;;;1.10;;
19347;SDS011;9810;52.480;9.806;2023-04-25T11:30:50;6.40;;;1.73;;
19347;SDS011;9810;52.480;9.806;2023-04-25T11:33:22;5.80;;;0.90;;
19347;SDS011;9810;52.480;9.806;2023-04-25T11:35:53;10.20;;;1.60;;
19347;SDS011;9810;52.480;9.806;2023-04-25T11:38:23;5.13;;;1.53;;
19347;SDS011;9810;52.480;9.806;2023-04-25T11:40:53;2.27;;;0.90;;
19347;SDS011;9810;52.480;9.806;2023-04-25T11:43:21;1.37;;;0.60;;
19347;SDS011;9810;52.480;9.806;2023-04-25T11:45:52;1.27;;;0.57;;
19347;SDS011;9810;52.480;9.806;2023-04-25T11:48:19;8.33;;;1.20;;
19347;SDS011;9810;52.480;9.806;2023-04-25T11:50:47;1.83;;;1.00;;
19347;SDS011;9810;52.480;9.806;2023-04-25T11:53:14;5.20;;;0.80;;
19347;SDS011;9810;52.480;9.806;2023-04-25T11:55:46;3.33;;;0.80;;
19347;SDS011;9810;52.480;9.806;2023-04-25T11:58:13;3.47;;;0.97;;
19347;SDS011;9810;52.480;9.806;2023-04-25T12:00:41;5.03;;;1.10;;
19347;SDS011;9810;52.480;9.806;2023-04-25T12:03:10;4.47;;;1.20;;
19347;SDS011;9810;52.480;9.806;2023-04-25T12:05:38;3.80;;;1.33;;
19347;SDS011;9810;52.480;9.806;2023-04-25T12:08:10;3.63;;;1.30;;
19347;SDS011;9810;52.480;9.806;2023-04-25T12:10:41;3.10;;;1.20;;
19347;SDS011;9810;52.480;9.806;2023-04-25T12:15:55;2.57;;;0.70;;
19347;SDS011;9810;52.480;9.806;2023-04-25T12:18:23;4.53;;;1.00;;
19347;SDS011;9810;52.480;9.806;2023-04-25T12:20:52;3.97;;;1.43;;
19347;SDS011;9810;52.480;9.806;2023-04-25T12:23:24;6.10;;;0.80;;
19347;SDS011;9810;52.480;9.806;2023-04-25T12:25:53;2.23;;;0.73;;
19347;SDS011;9810;52.480;9.806;2023-04-25T12:28:21;3.70;;;0.90;;
19347;SDS011;9810;52.480;9.806;2023-04-25T12:30:57;2.00;;;0.70;;
19347;SDS011;9810;52.480;9.806;2023-04-25T12:33:26;3.30;;;1.07;;
19347;SDS011;9810;52.480;9.806;2023-04-25T12:35:54;2.13;;;0.77;;
19347;SDS011;9810;52.480;9.806;2023-04-25T12:38:23;4.27;;;0.70;;
19347;SDS011;9810;52.480;9.806;2023-04-25T12:40:51;5.43;;;0.90;;
19347;SDS011;9810;52.480;9.806;2023-04-25T12:43:18;7.70;;;1.27;;
19347;SDS011;9810;52.480;9.806;2023-04-25T12:45:47;3.27;;;0.83;;
19347;SDS011;9810;52.480;9.806;2023-04-25T12:48:17;4.17;;;0.93;;
19347;SDS011;9810;52.480;9.806;2023-04-25T12:50:44;7.00;;;0.80;;
19347;SDS011;9810;52.480;9.806;2023-04-25T12:53:14;3.80;;;0.70;;
19347;SDS011;9810;52.480;9.806;2023-04-25T12:55:41;3.07;;;0.60;;
19347;SDS011;9810;52.480;9.806;2023-04-25T12:58:11;3.70;;;0.60;;
19347;SDS011;9810;52.480;9.806;2023-04-25T13:00:38;4.70;;;0.60;;
19347;SDS011;9810;52.480;9.806;2023-04-25T13:03:06;2.47;;;0.77;;
19347;SDS011;9810;52.480;9.806;2023-04-25T13:05:38;5.50;;;0.70;;
19347;SDS011;9810;52.480;9.806;2023-04-25T13:08:06;3.83;;;0.80;;
19347;SDS011;9810;52.480;9.806;2023-04-25T13:10:33;3.87;;;0.70;;
19347;SDS011;9810;52.480;9.806;2023-04-25T13:13:04;3.10;;;0.63;;
19347;SDS011;9810;52.480;9.806;2023-04-25T13:15:31;2.17;;;0.90;;
19347;SDS011;9810;52.480;9.806;2023-04-25T13:17:59;2.10;;;0.80;;
19347;SDS011;9810;52.480;9.806;2023-04-25T13:20:26;1.73;;;0.60;;
19347;SDS011;9810;52.480;9.806;2023-04-25T13:22:55;5.47;;;0.83;;
19347;SDS011;9810;52.480;9.806;2023-04-25T13:25:22;7.80;;;0.80;;
19347;SDS011;9810;52.480;9.806;2023-04-25T13:27:49;3.20;;;0.90;;
19347;SDS011;9810;52.480;9.806;2023-04-25T13:30:17;5.63;;;0.93;;
19347;SDS011;9810;52.480;9.806;2023-04-25T13:32:44;3.73;;;0.80;;
19347;SDS011;9810;52.480;9.806;2023-04-25T13:35:12;3.17;;;0.80;;
19347;SDS011;9810;52.480;9.806;2023-04-25T13:37:40;5.40;;;1.40;;
19347;SDS011;9810;52.480;9.806;2023-04-25T13:40:10;4.53;;;1.00;;
19347;SDS011;9810;52.480;9.806;2023-04-25T13:42:37;3.03;;;0.90;;
19347;SDS011;9810;52.480;9.806;2023-04-25T13:45:06;1.30;;;1.10;;
19347;SDS011;9810;52.480;9.806;2023-04-25T13:47:34;2.67;;;0.60;;
19347;SDS011;9810;52.480;9.806;2023-04-25T13:50:01;3.77;;;0.90;;
19347;SDS011;9810;52.480;9.806;2023-04-25T13:52:30;2.63;;;0.90;;
19347;SDS011;9810;52.480;9.806;2023-04-25T13:54:57;6.30;;;1.00;;
19347;SDS011;9810;52.480;9.806;2023-04-25T13:57:27;2.33;;;0.80;;
19347;SDS011;9810;52.480;9.806;2023-04-25T13:59:55;5.37;;;0.80;;
19347;SDS011;9810;52.480;9.806;2023-04-25T14:02:23;1.90;;;0.70;;
19347;SDS011;9810;52.480;9.806;2023-04-25T14:04:50;1.97;;;1.70;;
19347;SDS011;9810;52.480;9.806;2023-04-25T14:07:18;1.70;;;1.20;;
19347;SDS011;9810;52.480;9.806;2023-04-25T14:09:46;3.83;;;1.10;;
19347;SDS011;9810;52.480;9.806;2023-04-25T14:12:13;2.60;;;1.13;;
19347;SDS011;9810;52.480;9.806;2023-04-25T14:14:44;2.97;;;0.70;;
19347;SDS011;9810;52.480;9.806;2023-04-25T14:17:11;3.20;;;1.00;;
19347;SDS011;9810;52.480;9.806;2023-04-25T14:19:39;0.67;;;0.67;;
19347;SDS011;9810;52.480;9.806;2023-04-25T14:22:08;3.53;;;1.20;;
19347;SDS011;9810;52.480;9.806;2023-04-25T14:24:38;3.70;;;1.13;;
19347;SDS011;9810;52.480;9.806;2023-04-25T14:27:06;4.27;;;0.90;;
19347;SDS011;9810;52.480;9.806;2023-04-25T14:29:33;2.83;;;1.07;;
19347;SDS011;9810;52.480;9.806;2023-04-25T14:32:03;1.73;;;0.90;;
19347;SDS011;9810;52.480;9.806;2023-04-25T14:34:30;5.10;;;0.93;;
19347;SDS011;9810;52.480;9.806;2023-04-25T14:37:00;3.45;;;1.00;;
19347;SDS011;9810;52.480;9.806;2023-04-25T14:39:28;1.57;;;0.70;;
19347;SDS011;9810;52.480;9.806;2023-04-25T14:41:57;4.30;;;0.97;;
19347;SDS011;9810;52.480;9.806;2023-04-25T14:44:25;6.10;;;1.80;;
19347;SDS011;9810;52.480;9.806;2023-04-25T14:46:52;6.20;;;1.00;;
19347;SDS011;9810;52.480;9.806;2023-04-25T14:49:26;3.53;;;1.10;;
19347;SDS011;9810;52.480;9.806;2023-04-25T14:51:54;6.30;;;1.37;;
19347;SDS011;9810;52.480;9.806;2023-04-25T14:54:23;4.60;;;0.97;;
19347;SDS011;9810;52.480;9.806;2023-04-25T14:56:50;2.37;;;0.87;;
19347;SDS011;9810;52.480;9.806;2023-04-25T14:59:20;3.13;;;0.93;;
19347;SDS011;9810;52.480;9.806;2023-04-25T15:01:48;3.73;;;1.10;;
19347;SDS011;9810;52.480;9.806;2023-04-25T15:04:16;5.40;;;0.80;;
19347;SDS011;9810;52.480;9.806;2023-04-25T15:06:47;4.30;;;1.10;;
19347;SDS011;9810;52.480;9.806;2023-04-25T15:09:14;2.77;;;0.70;;
19347;SDS011;9810;52.480;9.806;2023-04-25T15:11:42;1.53;;;0.90;;
19347;SDS011;9810;52.480;9.806;2023-04-25T15:14:10;2.40;;;1.40;;
19347;SDS011;9810;52.480;9.806;2023-04-25T15:16:37;3.10;;;1.00;;
19347;SDS011;9810;52.480;9.806;2023-04-25T15:19:04;4.73;;;1.10;;
19347;SDS011;9810;52.480;9.806;2023-04-25T15:21:32;4.47;;;0.90;;
19347;SDS011;9810;52.480;9.806;2023-04-25T15:24:01;1.80;;;1.10;;
19347;SDS011;9810;52.480;9.806;2023-04-25T15:26:28;4.67;;;1.27;;
19347;SDS011;9810;52.480;9.806;2023-04-25T15:28:55;6.63;;;1.50;;
19347;SDS011;9810;52.480;9.806;2023-04-25T15:31:23;1.83;;;1.00;;
19347;SDS011;9810;52.480;9.806;2023-04-25T15:33:51;4.13;;;1.20;;
19347;SDS011;9810;52.480;9.806;2023-04-25T15:36:18;3.73;;;1.10;;
19347;SDS011;9810;52.480;9.806;2023-04-25T15:38:46;3.03;;;0.90;;
19347;SDS011;9810;52.480;9.806;2023-04-25T15:41:15;4.07;;;1.20;;
19347;SDS011;9810;52.480;9.806;2023-04-25T15:43:44;3.87;;;1.20;;
19347;SDS011;9810;52.480;9.806;2023-04-25T15:46:13;9.17;;;1.73;;
19347;SDS011;9810;52.480;9.806;2023-04-25T15:48:45;4.83;;;1.20;;
19347;SDS011;9810;52.480;9.806;2023-04-25T15:51:14;3.90;;;0.83;;